createdAt,value
2022-09-14T00:01:48.195Z,100.00
2022-09-14T00:04:21.117Z,100.00
2022-09-14T00:06:50.962Z,100.00
2022-09-14T00:09:25.755Z,100.00
2022-09-14T00:11:54.833Z,100.00
2022-09-14T00:14:23.368Z,100.00
2022-09-14T00:16:53.102Z,100.00
2022-09-14T00:19:27.846Z,100.00
2022-09-14T00:21:59.253Z,100.00
2022-09-14T00:24:31.791Z,100.00
2022-09-14T00:27:00.331Z,100.00
2022-09-14T00:29:28.854Z,100.00
2022-09-14T00:31:58.364Z,100.00
2022-09-14T00:34:27.027Z,100.00
2022-09-14T00:36:55.634Z,100.00
2022-09-14T00:39:25.850Z,100.00
2022-09-14T00:41:55.454Z,100.00
2022-09-14T00:44:26.920Z,100.00
2022-09-14T00:46:58.514Z,100.00
2022-09-14T00:49:36.175Z,100.00
2022-09-14T00:52:16.548Z,100.00
2022-09-14T00:54:58.706Z,100.00
2022-09-14T00:57:31.719Z,100.00
2022-09-14T01:00:00.893Z,100.00
2022-09-14T01:02:30.365Z,100.00
2022-09-14T01:04:59.234Z,100.00
2022-09-14T01:07:33.278Z,100.00
2022-09-14T01:10:29.050Z,100.00
2022-09-14T01:13:15.667Z,99.62
2022-09-14T01:15:56.038Z,99.46
2022-09-14T01:18:41.676Z,99.36
2022-09-14T01:21:14.668Z,98.03
2022-09-14T01:23:48.807Z,97.28
2022-09-14T01:26:35.629Z,96.90
2022-09-14T01:29:24.472Z,97.04
2022-09-14T01:31:59.295Z,97.29
2022-09-14T01:34:54.641Z,97.78
2022-09-14T01:37:43.357Z,95.38
2022-09-14T01:40:43.771Z,95.24
2022-09-14T01:43:16.563Z,94.85
2022-09-14T01:46:21.509Z,95.14
2022-09-14T01:49:08.914Z,94.26
2022-09-14T01:51:49.347Z,94.75
2022-09-14T01:54:36.342Z,92.18
2022-09-14T01:57:17.758Z,93.70
2022-09-14T01:59:48.679Z,93.05
2022-09-14T02:02:19.943Z,92.36
2022-09-14T02:04:54.352Z,92.61
2022-09-14T02:07:22.990Z,92.24
2022-09-14T02:09:52.906Z,91.01
2022-09-14T02:12:21.652Z,90.55
2022-09-14T02:14:53.723Z,91.20
2022-09-14T02:17:23.345Z,91.67
2022-09-14T02:19:57.384Z,92.56
2022-09-14T02:22:28.739Z,90.52
2022-09-14T02:24:57.425Z,89.17
2022-09-14T02:27:26.711Z,89.77
2022-09-14T02:29:55.566Z,89.17
2022-09-14T02:33:01.514Z,90.99
2022-09-14T02:35:35.930Z,89.42
2022-09-14T02:38:30.865Z,88.36
2022-09-14T02:41:13.279Z,86.57
2022-09-14T02:44:11.092Z,86.97
2022-09-14T02:46:47.966Z,87.88
2022-09-14T02:49:47.042Z,88.01
2022-09-14T02:52:31.851Z,88.93
2022-09-14T02:55:08.923Z,88.81
2022-09-14T02:58:07.875Z,89.60
2022-09-14T03:00:49.751Z,91.05
2022-09-14T03:03:21.858Z,88.89
2022-09-14T03:05:50.373Z,88.36
2022-09-14T03:08:18.822Z,88.22
2022-09-14T03:10:47.657Z,89.54
2022-09-14T03:13:16.086Z,88.56
2022-09-14T03:15:44.691Z,88.58
2022-09-14T03:18:14.664Z,89.73
2022-09-14T03:20:43.669Z,88.15
2022-09-14T03:23:13.202Z,87.78
2022-09-14T03:25:44.427Z,87.65
2022-09-14T03:28:14.434Z,89.98
2022-09-14T03:30:43.121Z,88.73
2022-09-14T03:33:11.667Z,88.19
2022-09-14T03:35:40.132Z,88.16
2022-09-14T03:38:09.588Z,88.63
2022-09-14T03:40:38.314Z,89.14
2022-09-14T03:43:06.869Z,85.90
2022-09-14T03:45:35.306Z,86.20
2022-09-14T03:48:04.056Z,86.22
2022-09-14T03:50:33.179Z,87.31
2022-09-14T03:53:01.703Z,88.32
2022-09-14T03:55:30.240Z,87.64
2022-09-14T03:57:58.776Z,87.57
2022-09-14T04:00:27.247Z,88.60
2022-09-14T04:02:55.773Z,88.72
2022-09-14T04:05:24.274Z,88.01
2022-09-14T04:07:52.750Z,86.55
2022-09-14T04:10:21.286Z,85.46
2022-09-14T04:12:49.712Z,87.05
2022-09-14T04:15:18.478Z,86.11
2022-09-14T04:17:47.246Z,85.62
2022-09-14T04:20:15.784Z,84.41
2022-09-14T04:22:44.197Z,85.03
2022-09-14T04:25:13.103Z,85.17
2022-09-14T04:27:41.600Z,86.42
2022-09-14T04:30:10.408Z,87.26
2022-09-14T04:32:38.862Z,87.64
2022-09-14T04:35:07.597Z,87.04
2022-09-14T04:37:36.052Z,87.17
2022-09-14T04:40:04.780Z,87.08
2022-09-14T04:42:33.284Z,87.65
2022-09-14T04:45:01.959Z,88.20
2022-09-14T04:47:31.017Z,87.01
2022-09-14T04:49:59.513Z,86.36
2022-09-14T04:52:27.939Z,86.40
2022-09-14T04:54:56.544Z,86.09
2022-09-14T04:57:25.042Z,87.85
2022-09-14T04:59:53.476Z,90.01
2022-09-14T05:02:22.195Z,91.05
2022-09-14T05:04:50.741Z,92.20
2022-09-14T05:07:19.254Z,88.23
2022-09-14T05:09:47.671Z,88.72
2022-09-14T05:12:16.207Z,87.66
2022-09-14T05:14:44.712Z,89.37
2022-09-14T05:17:13.179Z,88.58
2022-09-14T05:19:41.676Z,89.92
2022-09-14T05:22:10.111Z,87.54
2022-09-14T05:24:38.597Z,83.79
2022-09-14T05:27:07.113Z,83.22
2022-09-14T05:29:35.718Z,83.80
2022-09-14T05:32:04.588Z,84.88
2022-09-14T05:34:33.212Z,84.56
2022-09-14T05:37:01.690Z,83.35
2022-09-14T05:39:30.345Z,85.58
2022-09-14T05:41:58.876Z,87.11
2022-09-14T05:44:27.524Z,88.52
2022-09-14T05:46:56.012Z,89.95
2022-09-14T05:49:26.296Z,87.83
2022-09-14T05:51:54.801Z,88.10
2022-09-14T05:54:23.202Z,88.82
2022-09-14T05:56:51.706Z,89.62
2022-09-14T05:59:20.210Z,91.31
2022-09-14T06:01:49.070Z,92.53
2022-09-14T06:04:17.555Z,92.60
2022-09-14T06:06:56.085Z,93.71
2022-09-14T06:09:34.625Z,94.12
2022-09-14T06:12:03.347Z,94.81
2022-09-14T06:14:35.255Z,95.70
2022-09-14T06:17:04.133Z,96.64
2022-09-14T06:19:32.566Z,97.31
2022-09-14T06:22:02.222Z,97.79
2022-09-14T06:24:30.746Z,98.41
2022-09-14T06:26:59.165Z,98.72
2022-09-14T06:29:38.232Z,99.04
2022-09-14T06:32:07.084Z,98.81
2022-09-14T06:34:35.518Z,98.81
2022-09-14T06:37:04.052Z,98.78
2022-09-14T06:39:32.749Z,98.15
2022-09-14T06:42:01.275Z,98.00
2022-09-14T06:44:29.723Z,97.98
2022-09-14T06:46:58.437Z,97.53
2022-09-14T06:49:26.913Z,96.84
2022-09-14T06:51:57.698Z,95.47
2022-09-14T06:54:26.553Z,94.18
2022-09-14T06:56:55.080Z,94.11
2022-09-14T06:59:23.627Z,94.22
2022-09-14T07:01:52.194Z,94.22
2022-09-14T07:04:20.789Z,93.94
2022-09-14T07:06:51.223Z,93.85
2022-09-14T07:09:20.809Z,94.22
2022-09-14T07:11:50.194Z,94.32
2022-09-14T07:14:18.773Z,94.71
2022-09-14T07:16:47.317Z,94.67
2022-09-14T07:19:16.916Z,94.72
2022-09-14T07:21:45.428Z,95.20
2022-09-14T07:24:16.013Z,93.50
2022-09-14T07:26:44.719Z,92.57
2022-09-14T07:29:18.781Z,92.03
2022-09-14T07:31:55.115Z,90.81
2022-09-14T07:34:24.949Z,90.43
2022-09-14T07:36:53.526Z,90.03
2022-09-14T07:39:22.069Z,90.71
2022-09-14T07:41:50.539Z,91.04
2022-09-14T07:44:19.423Z,91.15
2022-09-14T07:46:48.641Z,91.61
2022-09-14T07:49:18.456Z,91.41
2022-09-14T07:51:47.060Z,91.25
2022-09-14T07:54:17.656Z,91.70
2022-09-14T07:56:46.831Z,92.01
2022-09-14T07:59:35.938Z,92.90
2022-09-14T08:02:08.684Z,92.99
2022-09-14T08:04:37.537Z,92.97
2022-09-14T08:07:06.764Z,91.86
2022-09-14T08:09:35.524Z,91.97
2022-09-14T08:12:05.464Z,91.34
2022-09-14T08:14:34.176Z,91.98
2022-09-14T08:17:02.838Z,92.10
2022-09-14T08:19:31.385Z,92.87
2022-09-14T08:21:59.858Z,92.14
2022-09-14T08:24:28.566Z,92.35
2022-09-14T08:26:57.034Z,91.88
2022-09-14T08:29:25.517Z,92.63
2022-09-14T08:31:54.390Z,91.80
2022-09-14T08:34:23.076Z,91.20
2022-09-14T08:36:52.054Z,92.00
2022-09-14T08:39:20.751Z,92.24
2022-09-14T08:41:49.365Z,92.28
2022-09-14T08:44:32.295Z,92.63
2022-09-14T08:47:14.107Z,92.31
2022-09-14T08:49:56.087Z,91.75
2022-09-14T08:52:48.167Z,92.55
2022-09-14T08:55:19.384Z,93.31
2022-09-14T08:58:06.142Z,93.03
2022-09-14T09:00:49.628Z,93.84
2022-09-14T09:03:41.215Z,93.14
2022-09-14T09:06:16.984Z,92.55
2022-09-14T09:08:45.398Z,93.06
2022-09-14T09:11:21.017Z,92.94
2022-09-14T09:13:53.149Z,91.32
2022-09-14T09:16:25.572Z,92.30
2022-09-14T09:19:08.643Z,93.00
2022-09-14T09:21:43.393Z,92.48
2022-09-14T09:24:27.442Z,93.72
2022-09-14T09:26:55.889Z,93.66
2022-09-14T09:29:24.654Z,95.05
2022-09-14T09:32:00.046Z,94.63
2022-09-14T09:34:31.288Z,95.12
2022-09-14T09:37:01.930Z,94.82
2022-09-14T09:39:34.830Z,93.87
2022-09-14T09:42:14.194Z,94.01
2022-09-14T09:44:59.315Z,93.64
2022-09-14T09:47:43.127Z,93.21
2022-09-14T09:50:26.176Z,93.75
2022-09-14T09:53:06.020Z,94.32
2022-09-14T09:55:40.972Z,94.46
2022-09-14T09:58:24.644Z,94.07
2022-09-14T10:01:20.465Z,94.74
2022-09-14T10:04:06.787Z,95.50
2022-09-14T10:06:47.668Z,95.99
2022-09-14T10:09:22.611Z,96.13
2022-09-14T10:12:05.499Z,96.61
2022-09-14T10:14:37.060Z,96.19
2022-09-14T10:17:25.140Z,96.78
2022-09-14T10:19:55.876Z,96.73
2022-09-14T10:22:39.244Z,96.19
2022-09-14T10:25:16.974Z,96.03
2022-09-14T10:28:01.179Z,96.71
2022-09-14T10:30:50.294Z,96.24
2022-09-14T10:33:19.590Z,96.06
2022-09-14T10:35:51.058Z,95.53
2022-09-14T10:38:35.493Z,95.72
2022-09-14T10:41:16.877Z,95.48
2022-09-14T10:44:20.415Z,95.99
2022-09-14T10:47:02.589Z,95.41
2022-09-14T10:49:34.629Z,95.59
2022-09-14T10:52:25.426Z,95.96
2022-09-14T10:55:00.077Z,96.64
2022-09-14T10:57:40.797Z,96.00
2022-09-14T11:00:21.684Z,96.74
2022-09-14T11:03:28.794Z,97.12
2022-09-14T11:05:57.186Z,97.11
2022-09-14T11:08:30.932Z,97.29
2022-09-14T11:11:11.670Z,98.05
2022-09-14T11:13:47.127Z,98.11
2022-09-14T11:16:33.484Z,97.88
2022-09-14T11:19:22.523Z,97.72
2022-09-14T11:22:28.049Z,97.09
2022-09-14T11:25:13.620Z,97.60
2022-09-14T11:27:58.701Z,97.92
2022-09-14T11:30:40.546Z,98.35
2022-09-14T11:33:19.092Z,99.00
2022-09-14T11:35:53.286Z,98.98
2022-09-14T11:38:27.468Z,98.70
2022-09-14T11:41:20.842Z,98.37
2022-09-14T11:43:59.332Z,98.82
2022-09-14T11:46:41.345Z,99.05
2022-09-14T11:49:28.018Z,99.01
2022-09-14T11:52:30.090Z,99.29
2022-09-14T11:55:00.576Z,99.46
2022-09-14T11:57:32.029Z,99.93
2022-09-14T12:00:03.840Z,99.64
2022-09-14T12:02:37.518Z,99.10
2022-09-14T12:05:09.282Z,99.42
2022-09-14T12:07:43.858Z,99.35
2022-09-14T12:10:21.626Z,99.37
2022-09-14T12:13:00.666Z,99.21
2022-09-14T12:15:29.194Z,99.19
2022-09-14T12:18:10.294Z,99.05
2022-09-14T12:21:00.793Z,98.43
2022-09-14T12:23:41.101Z,98.75
2022-09-14T12:26:12.222Z,99.54
2022-09-14T12:28:49.139Z,99.29
2022-09-14T12:31:45.379Z,98.96
2022-09-14T12:34:32.853Z,98.93
2022-09-14T12:37:33.343Z,98.31
2022-09-14T12:40:33.138Z,98.04
2022-09-14T12:43:36.895Z,97.93
2022-09-14T12:46:09.225Z,98.43
2022-09-14T12:48:50.009Z,98.51
2022-09-14T12:51:32.264Z,98.21
2022-09-14T12:54:04.112Z,97.84
2022-09-14T12:56:41.881Z,97.90
2022-09-14T12:59:13.036Z,97.86
2022-09-14T13:02:11.083Z,96.90
2022-09-14T13:04:43.072Z,96.18
2022-09-14T13:07:20.912Z,96.21
2022-09-14T13:09:55.510Z,95.93
2022-09-14T13:12:47.858Z,95.42
2022-09-14T13:15:28.614Z,95.46
2022-09-14T13:18:02.540Z,95.33
2022-09-14T13:20:33.407Z,94.94
2022-09-14T13:23:02.479Z,95.21
2022-09-14T13:25:39.736Z,95.36
2022-09-14T13:28:16.737Z,95.02
2022-09-14T13:30:54.384Z,95.32
2022-09-14T13:33:23.394Z,94.92
2022-09-14T13:36:11.911Z,95.07
2022-09-14T13:38:40.557Z,95.11
2022-09-14T13:41:20.481Z,94.97
2022-09-14T13:43:49.321Z,95.07
2022-09-14T13:46:20.388Z,95.56
2022-09-14T13:48:49.806Z,95.82
2022-09-14T13:51:26.150Z,95.27
2022-09-14T13:53:59.963Z,96.13
2022-09-14T13:56:34.713Z,95.96
2022-09-14T13:59:12.473Z,95.81
2022-09-14T14:02:01.975Z,95.85
2022-09-14T14:04:34.644Z,95.70
2022-09-14T14:07:14.391Z,95.99
2022-09-14T14:09:47.809Z,95.38
2022-09-14T14:12:28.476Z,95.28
2022-09-14T14:15:00.911Z,95.94
2022-09-14T14:17:37.772Z,96.14
2022-09-14T14:20:41.651Z,95.96
2022-09-14T14:23:10.068Z,96.64
2022-09-14T14:25:56.535Z,96.82
2022-09-14T14:28:29.409Z,96.83
2022-09-14T14:31:03.036Z,96.53
2022-09-14T14:33:33.869Z,96.45
2022-09-14T14:36:09.327Z,95.95
2022-09-14T14:38:38.865Z,95.99
2022-09-14T14:41:07.710Z,96.24
2022-09-14T14:43:36.341Z,96.11
2022-09-14T14:46:07.259Z,95.93
2022-09-14T14:48:35.917Z,96.46
2022-09-14T14:51:04.614Z,96.87
2022-09-14T14:53:33.210Z,97.52
2022-09-14T14:56:01.755Z,97.62
2022-09-14T14:58:35.368Z,97.69
2022-09-14T15:01:05.206Z,97.60
2022-09-14T15:03:33.725Z,98.00
2022-09-14T15:06:11.943Z,98.41
2022-09-14T15:08:40.407Z,97.85
2022-09-14T15:11:21.609Z,98.01
2022-09-14T15:13:50.914Z,98.53
2022-09-14T15:16:19.731Z,99.19
2022-09-14T15:18:48.295Z,99.15
2022-09-14T15:21:16.931Z,98.88
2022-09-14T15:23:45.413Z,98.82
2022-09-14T15:26:13.973Z,99.33
2022-09-14T15:28:42.409Z,99.48
2022-09-14T15:31:10.874Z,98.95
2022-09-14T15:33:39.662Z,99.22
2022-09-14T15:36:08.257Z,99.66
2022-09-14T15:38:36.763Z,99.89
2022-09-14T15:41:05.890Z,100.00
2022-09-14T15:43:34.933Z,100.00
2022-09-14T15:46:04.595Z,99.95
2022-09-14T15:48:33.196Z,100.00
2022-09-14T15:51:10.727Z,100.00
2022-09-14T15:53:40.161Z,100.00
2022-09-14T15:56:16.257Z,100.00
2022-09-14T15:58:48.023Z,100.00
2022-09-14T16:01:18.542Z,100.00
2022-09-14T16:03:47.462Z,100.00
2022-09-14T16:06:16.397Z,99.59
2022-09-14T16:08:45.020Z,99.42
2022-09-14T16:11:13.498Z,99.52
2022-09-14T16:13:41.945Z,99.61
2022-09-14T16:16:14.051Z,100.00
2022-09-14T16:18:43.448Z,100.00
2022-09-14T16:21:23.655Z,99.71
2022-09-14T16:24:03.546Z,99.51
2022-09-14T16:26:35.358Z,99.49
2022-09-14T16:29:05.005Z,99.27
2022-09-14T16:31:36.479Z,99.02
2022-09-14T16:34:08.326Z,98.77
2022-09-14T16:36:40.624Z,98.81
2022-09-14T16:39:13.593Z,98.88
2022-09-14T16:41:43.321Z,98.65
2022-09-14T16:44:15.169Z,99.31
2022-09-14T16:46:44.478Z,99.77
2022-09-14T16:49:13.522Z,99.13
2022-09-14T16:51:42.010Z,99.46
2022-09-14T16:54:12.438Z,99.10
2022-09-14T16:56:40.900Z,99.31
2022-09-14T16:59:09.379Z,99.37
2022-09-14T17:01:40.890Z,98.98
2022-09-14T17:04:11.876Z,99.04
2022-09-14T17:06:42.534Z,98.88
2022-09-14T17:09:13.947Z,98.69
2022-09-14T17:11:43.692Z,98.99
2022-09-14T17:14:17.046Z,99.21
2022-09-14T17:16:46.037Z,99.63
2022-09-14T17:19:14.704Z,99.64
2022-09-14T17:21:45.852Z,99.58
2022-09-14T17:24:15.528Z,99.91
2022-09-14T17:26:44.602Z,100.00
2022-09-14T17:29:13.457Z,100.00
2022-09-14T17:31:44.252Z,100.00
2022-09-14T17:34:16.990Z,100.00
2022-09-14T17:36:46.612Z,100.00
2022-09-14T17:39:16.500Z,100.00
2022-09-14T17:41:45.424Z,100.00
2022-09-14T17:44:16.979Z,100.00
2022-09-14T17:46:51.999Z,100.00
2022-09-14T17:49:23.977Z,100.00
2022-09-14T17:51:52.901Z,100.00
2022-09-14T17:54:21.790Z,99.83
2022-09-14T17:56:50.295Z,100.00
2022-09-14T17:59:21.778Z,100.00
2022-09-14T18:01:51.310Z,100.00
2022-09-14T18:04:20.509Z,100.00
2022-09-14T18:06:51.005Z,100.00
2022-09-14T18:09:22.574Z,100.00
2022-09-14T18:11:52.128Z,99.38
2022-09-14T18:14:21.054Z,99.47
2022-09-14T18:16:49.566Z,99.57
2022-09-14T18:19:18.243Z,99.38
2022-09-14T18:21:51.654Z,99.38
2022-09-14T18:24:20.902Z,98.88
2022-09-14T18:26:49.777Z,98.34
2022-09-14T18:29:22.261Z,98.10
2022-09-14T18:31:52.127Z,98.23
2022-09-14T18:34:22.661Z,97.91
2022-09-14T18:36:53.033Z,98.24
2022-09-14T18:39:21.473Z,98.43
2022-09-14T18:41:54.864Z,98.16
2022-09-14T18:44:24.392Z,97.88
2022-09-14T18:46:53.469Z,98.05
2022-09-14T18:49:22.112Z,98.25
2022-09-14T18:51:50.749Z,98.13
2022-09-14T18:54:22.204Z,97.66
2022-09-14T18:56:53.076Z,97.62
2022-09-14T18:59:21.722Z,97.87
2022-09-14T19:01:50.448Z,98.74
2022-09-14T19:04:19.062Z,98.46
2022-09-14T19:06:47.574Z,98.88
2022-09-14T19:09:15.990Z,98.72
2022-09-14T19:11:44.476Z,99.03
2022-09-14T19:14:14.411Z,99.02
2022-09-14T19:16:43.722Z,99.38
2022-09-14T19:19:15.093Z,99.70
2022-09-14T19:21:44.187Z,99.24
2022-09-14T19:24:16.133Z,99.46
2022-09-14T19:26:48.058Z,99.25
2022-09-14T19:29:20.304Z,99.10
2022-09-14T19:31:52.514Z,98.83
2022-09-14T19:34:24.238Z,98.88
2022-09-14T19:36:54.727Z,99.05
2022-09-14T19:39:27.149Z,98.79
2022-09-14T19:41:55.643Z,99.64
2022-09-14T19:44:24.291Z,99.34
2022-09-14T19:46:52.866Z,99.61
2022-09-14T19:49:25.064Z,99.52
2022-09-14T19:51:53.747Z,99.89
2022-09-14T19:54:22.393Z,99.85
2022-09-14T19:56:51.180Z,100.00
2022-09-14T19:59:19.644Z,99.92
2022-09-14T20:01:48.402Z,100.00
2022-09-14T20:04:19.151Z,100.00
2022-09-14T20:06:48.711Z,100.00
2022-09-14T20:09:23.522Z,100.00
2022-09-14T20:11:53.708Z,100.00
2022-09-14T20:14:25.415Z,100.00
2022-09-14T20:16:56.556Z,100.00
2022-09-14T20:19:29.161Z,100.00
2022-09-14T20:21:58.246Z,100.00
2022-09-14T20:24:28.859Z,100.00
2022-09-14T20:27:00.556Z,99.90
2022-09-14T20:29:31.620Z,100.00
2022-09-14T20:32:00.587Z,100.00
2022-09-14T20:34:29.694Z,100.00
2022-09-14T20:37:01.256Z,100.00
2022-09-14T20:39:30.598Z,100.00
2022-09-14T20:41:58.980Z,100.00
2022-09-14T20:44:27.506Z,100.00
2022-09-14T20:46:56.048Z,100.00
2022-09-14T20:49:25.076Z,100.00
2022-09-14T20:51:58.341Z,100.00
2022-09-14T20:54:26.887Z,100.00
2022-09-14T20:56:55.293Z,100.00
2022-09-14T20:59:23.999Z,100.00
2022-09-14T21:01:54.091Z,100.00
2022-09-14T21:04:24.707Z,100.00
2022-09-14T21:06:55.583Z,100.00
2022-09-14T21:09:26.576Z,100.00
2022-09-14T21:11:55.556Z,100.00
2022-09-14T21:14:24.419Z,100.00
2022-09-14T21:16:57.553Z,100.00
2022-09-14T21:19:28.825Z,100.00
2022-09-14T21:21:57.585Z,99.99
2022-09-14T21:24:26.212Z,100.00
2022-09-14T21:26:54.777Z,100.00
2022-09-14T21:29:24.755Z,100.00
2022-09-14T21:31:54.070Z,100.00
2022-09-14T21:34:22.953Z,100.00
2022-09-14T21:36:52.952Z,100.00
2022-09-14T21:39:26.724Z,100.00
2022-09-14T21:41:59.339Z,100.00
2022-09-14T21:44:36.258Z,100.00
2022-09-14T21:47:05.995Z,100.00
2022-09-14T21:49:34.569Z,100.00
2022-09-14T21:52:03.356Z,100.00
2022-09-14T21:54:31.969Z,100.00
2022-09-14T21:57:00.511Z,100.00
2022-09-14T21:59:28.943Z,100.00
2022-09-14T22:01:57.492Z,100.00
2022-09-14T22:04:27.910Z,100.00
2022-09-14T22:06:58.210Z,100.00
2022-09-14T22:09:29.904Z,100.00
2022-09-14T22:11:59.179Z,100.00
2022-09-14T22:14:29.934Z,100.00
2022-09-14T22:16:58.614Z,100.00
2022-09-14T22:19:32.535Z,100.00
2022-09-14T22:22:01.160Z,100.00
2022-09-14T22:24:37.129Z,100.00
2022-09-14T22:27:13.016Z,100.00
2022-09-14T22:29:42.164Z,100.00
2022-09-14T22:32:12.925Z,100.00
2022-09-14T22:34:43.907Z,100.00
2022-09-14T22:37:15.095Z,100.00
2022-09-14T22:39:43.630Z,100.00
2022-09-14T22:42:12.136Z,100.00
2022-09-14T22:44:40.543Z,100.00
2022-09-14T22:47:09.050Z,100.00
2022-09-14T22:49:37.575Z,100.00
2022-09-14T22:52:06.162Z,100.00
2022-09-14T22:54:34.638Z,100.00
2022-09-14T22:57:03.117Z,100.00
2022-09-14T22:59:31.690Z,100.00
2022-09-14T23:02:00.163Z,100.00
2022-09-14T23:04:28.631Z,100.00
2022-09-14T23:06:57.127Z,100.00
2022-09-14T23:09:25.623Z,100.00
2022-09-14T23:11:54.269Z,100.00
2022-09-14T23:14:23.265Z,100.00
2022-09-14T23:16:51.751Z,100.00
2022-09-14T23:19:20.458Z,100.00
2022-09-14T23:21:48.944Z,100.00
2022-09-14T23:24:17.429Z,100.00
2022-09-14T23:26:46.005Z,100.00
2022-09-14T23:29:17.329Z,100.00
2022-09-14T23:31:46.493Z,100.00
2022-09-14T23:34:15.480Z,100.00
2022-09-14T23:36:44.068Z,100.00
2022-09-14T23:39:12.657Z,100.00
2022-09-14T23:41:41.769Z,100.00
2022-09-14T23:44:12.974Z,100.00
2022-09-14T23:46:41.757Z,100.00
2022-09-14T23:49:11.592Z,100.00
2022-09-14T23:51:41.061Z,100.00
2022-09-14T23:54:10.957Z,100.00
2022-09-14T23:56:39.732Z,100.00
2022-09-14T23:59:11.500Z,100.00
